createdAt,value
2019-05-15T00:00:40.742Z,8.10
2019-05-15T00:01:41.303Z,8.20
2019-05-15T00:02:41.095Z,7.95
2019-05-15T00:03:41.252Z,7.95
2019-05-15T00:04:41.434Z,7.90
2019-05-15T00:05:41.603Z,7.94
2019-05-15T00:06:41.773Z,8.00
2019-05-15T00:07:41.943Z,8.01
2019-05-15T00:08:42.127Z,7.91
2019-05-15T00:09:42.315Z,7.83
2019-05-15T00:10:42.484Z,7.87
2019-05-15T00:11:42.623Z,7.76
2019-05-15T00:12:42.795Z,7.77
2019-05-15T00:13:42.964Z,7.69
2019-05-15T00:14:43.131Z,7.67
2019-05-15T00:15:43.296Z,7.73
2019-05-15T00:16:43.467Z,7.58
2019-05-15T00:17:43.641Z,7.70
2019-05-15T00:18:43.811Z,7.69
2019-05-15T00:19:43.975Z,7.54
2019-05-15T00:20:44.152Z,7.48
2019-05-15T00:21:44.337Z,7.54
2019-05-15T00:22:44.517Z,7.51
2019-05-15T00:23:44.681Z,7.43
2019-05-15T00:24:44.848Z,7.47
2019-05-15T00:25:45.022Z,7.57
2019-05-15T00:26:45.193Z,7.51
2019-05-15T00:27:45.364Z,7.51
2019-05-15T00:28:47.858Z,7.56
2019-05-15T00:29:45.698Z,7.43
2019-05-15T00:30:48.010Z,7.54
2019-05-15T00:31:48.350Z,7.42
2019-05-15T00:32:48.522Z,7.47
2019-05-15T00:33:48.217Z,7.47
2019-05-15T00:34:48.690Z,7.50
2019-05-15T00:35:48.577Z,7.47
2019-05-15T00:36:48.884Z,7.47
2019-05-15T00:37:49.317Z,7.56
2019-05-15T00:38:48.312Z,7.66
2019-05-15T00:39:48.567Z,7.54
2019-05-15T00:40:49.625Z,7.54
2019-05-15T00:41:54.024Z,7.63
2019-05-15T00:42:48.825Z,7.53
2019-05-15T00:43:49.456Z,7.47
2019-05-15T00:44:49.345Z,7.53
2019-05-15T00:45:48.952Z,7.53
2019-05-15T00:46:48.903Z,7.57
2019-05-15T00:47:48.907Z,7.56
2019-05-15T00:48:49.050Z,7.58
2019-05-15T00:49:49.216Z,7.61
2019-05-15T00:50:49.385Z,7.70
2019-05-15T00:51:49.557Z,7.69
2019-05-15T00:52:49.731Z,7.73
2019-05-15T00:53:49.898Z,7.66
2019-05-15T00:54:50.075Z,7.50
2019-05-15T00:55:50.244Z,7.53
2019-05-15T00:56:50.418Z,7.36
2019-05-15T00:57:50.585Z,7.50
2019-05-15T00:58:50.756Z,7.39
2019-05-15T00:59:50.929Z,7.39
2019-05-15T01:00:51.102Z,7.38
2019-05-15T01:01:51.264Z,7.39
2019-05-15T01:02:51.434Z,7.31
2019-05-15T01:03:51.607Z,7.33
2019-05-15T01:04:51.763Z,7.28
2019-05-15T01:05:51.930Z,7.15
2019-05-15T01:06:52.753Z,7.15
2019-05-15T01:07:52.265Z,7.06
2019-05-15T01:08:52.433Z,6.99
2019-05-15T01:09:52.599Z,6.97
2019-05-15T01:10:52.767Z,7.18
2019-05-15T01:11:52.936Z,7.17
2019-05-15T01:12:53.113Z,7.13
2019-05-15T01:13:53.280Z,7.11
2019-05-15T01:14:53.449Z,7.11
2019-05-15T01:15:53.615Z,7.18
2019-05-15T01:16:53.777Z,7.10
2019-05-15T01:17:53.950Z,7.15
2019-05-15T01:18:54.118Z,7.18
2019-05-15T01:19:54.289Z,7.14
2019-05-15T01:20:54.463Z,7.13
2019-05-15T01:21:54.631Z,7.20
2019-05-15T01:22:54.811Z,7.11
2019-05-15T01:23:54.974Z,7.11
2019-05-15T01:24:55.138Z,7.14
2019-05-15T01:25:55.302Z,7.03
2019-05-15T01:26:55.473Z,6.99
2019-05-15T01:27:55.645Z,6.95
2019-05-15T01:28:55.818Z,6.81
2019-05-15T01:29:58.059Z,6.89
2019-05-15T01:30:56.154Z,6.87
2019-05-15T01:31:56.328Z,6.82
2019-05-15T01:32:56.497Z,6.72
2019-05-15T01:33:58.373Z,6.70
2019-05-15T01:34:58.071Z,6.62
2019-05-15T01:35:58.891Z,6.60
2019-05-15T01:36:59.101Z,6.69
2019-05-15T01:37:58.555Z,6.64
2019-05-15T01:38:58.450Z,6.69
2019-05-15T01:39:58.168Z,6.66
2019-05-15T01:40:59.175Z,6.70
2019-05-15T01:41:58.510Z,6.74
2019-05-15T01:42:58.324Z,6.74
2019-05-15T01:43:58.359Z,6.74
2019-05-15T01:44:58.966Z,6.62
2019-05-15T01:45:58.969Z,6.72
2019-05-15T01:46:59.137Z,6.64
2019-05-15T01:47:59.025Z,6.62
2019-05-15T01:48:59.192Z,6.62
2019-05-15T01:49:59.362Z,6.52
2019-05-15T01:50:59.536Z,6.51
2019-05-15T01:51:59.701Z,6.46
2019-05-15T01:52:59.871Z,6.46
2019-05-15T01:54:00.039Z,6.54
2019-05-15T01:55:00.209Z,6.54
2019-05-15T01:56:00.379Z,6.56
2019-05-15T01:57:00.547Z,6.51
2019-05-15T01:58:00.722Z,6.56
2019-05-15T01:59:00.890Z,6.57
2019-05-15T02:00:01.079Z,6.39
2019-05-15T02:01:01.239Z,6.48
2019-05-15T02:02:01.393Z,6.57
2019-05-15T02:03:01.559Z,6.49
2019-05-15T02:04:01.742Z,6.41
2019-05-15T02:05:01.903Z,6.46
2019-05-15T02:06:05.029Z,6.51
2019-05-15T02:07:08.278Z,6.41
2019-05-15T02:08:02.344Z,6.44
2019-05-15T02:09:04.315Z,6.33
2019-05-15T02:10:04.776Z,6.36
2019-05-15T02:11:05.202Z,6.41
2019-05-15T02:12:04.964Z,6.38
2019-05-15T02:13:08.309Z,6.41
2019-05-15T02:14:03.250Z,6.44
2019-05-15T02:15:08.362Z,6.44
2019-05-15T02:16:08.195Z,6.38
2019-05-15T02:17:08.357Z,6.28
2019-05-15T02:18:05.087Z,6.36
2019-05-15T02:19:05.312Z,6.22
2019-05-15T02:20:04.608Z,6.16
2019-05-15T02:21:07.419Z,6.22
2019-05-15T02:22:08.342Z,6.19
2019-05-15T02:23:11.538Z,6.17
2019-05-15T02:24:07.945Z,6.14
2019-05-15T02:25:08.579Z,6.27
2019-05-15T02:26:07.957Z,6.22
2019-05-15T02:27:08.923Z,6.19
2019-05-15T02:28:09.125Z,6.16
2019-05-15T02:29:07.836Z,6.14
2019-05-15T02:30:17.963Z,6.20
2019-05-15T02:31:05.992Z,6.09
2019-05-15T02:32:09.929Z,6.04
2019-05-15T02:33:10.076Z,5.99
2019-05-15T02:34:09.773Z,5.89
2019-05-15T02:35:09.538Z,5.87
2019-05-15T02:36:09.735Z,5.87
2019-05-15T02:37:08.954Z,5.99
2019-05-15T02:38:10.150Z,6.05
2019-05-15T02:39:08.920Z,5.89
2019-05-15T02:40:09.940Z,5.86
2019-05-15T02:41:09.922Z,5.80
2019-05-15T02:42:09.878Z,5.86
2019-05-15T02:43:10.030Z,5.75
2019-05-15T02:44:10.879Z,5.76
2019-05-15T02:45:09.841Z,5.71
2019-05-15T02:46:10.163Z,5.69
2019-05-15T02:47:09.320Z,5.57
2019-05-15T02:48:09.176Z,5.59
2019-05-15T02:49:09.074Z,5.53
2019-05-15T02:50:10.876Z,5.57
2019-05-15T02:51:09.859Z,5.53
2019-05-15T02:52:10.158Z,5.53
2019-05-15T02:53:10.340Z,5.46
2019-05-15T02:54:10.462Z,5.47
2019-05-15T02:55:09.979Z,5.62
2019-05-15T02:56:10.125Z,5.47
2019-05-15T02:57:10.297Z,5.44
2019-05-15T02:58:10.756Z,5.46
2019-05-15T02:59:10.637Z,5.50
2019-05-15T03:00:11.414Z,5.53
2019-05-15T03:01:10.972Z,5.47
2019-05-15T03:02:11.139Z,5.50
2019-05-15T03:03:11.312Z,5.51
2019-05-15T03:04:11.477Z,5.44
2019-05-15T03:05:11.643Z,5.47
2019-05-15T03:06:11.814Z,5.48
2019-05-15T03:07:11.982Z,5.38
2019-05-15T03:08:12.155Z,5.30
2019-05-15T03:09:12.316Z,5.50
2019-05-15T03:10:12.479Z,5.39
2019-05-15T03:11:12.646Z,5.38
2019-05-15T03:12:12.817Z,5.29
2019-05-15T03:13:12.995Z,5.36
2019-05-15T03:14:13.167Z,5.38
2019-05-15T03:15:13.334Z,5.36
2019-05-15T03:16:13.501Z,5.25
2019-05-15T03:17:13.680Z,5.30
2019-05-15T03:18:13.840Z,5.23
2019-05-15T03:19:14.019Z,5.28
2019-05-15T03:20:14.171Z,5.11
2019-05-15T03:21:14.347Z,5.04
2019-05-15T03:22:14.517Z,5.05
2019-05-15T03:23:14.694Z,5.08
2019-05-15T03:24:14.854Z,5.18
2019-05-15T03:25:15.014Z,5.02
2019-05-15T03:26:15.199Z,5.11
2019-05-15T03:27:15.632Z,5.07
2019-05-15T03:28:18.756Z,5.08
2019-05-15T03:29:15.724Z,4.90
2019-05-15T03:30:21.094Z,4.92
2019-05-15T03:31:35.206Z,4.78
2019-05-15T03:32:27.806Z,4.89
2019-05-15T03:33:25.727Z,4.86
2019-05-15T03:34:23.106Z,4.77
2019-05-15T03:35:22.153Z,4.70
2019-05-15T03:36:22.194Z,4.75
2019-05-15T03:37:22.332Z,4.74
2019-05-15T03:38:19.300Z,4.90
2019-05-15T03:39:19.007Z,4.90
2019-05-15T03:40:19.351Z,4.75
2019-05-15T03:41:19.537Z,4.74
2019-05-15T03:42:19.135Z,4.86
2019-05-15T03:43:18.582Z,4.74
2019-05-15T03:44:19.793Z,4.78
2019-05-15T03:45:19.289Z,4.78
2019-05-15T03:46:20.061Z,4.86
2019-05-15T03:47:19.440Z,4.87
2019-05-15T03:48:19.690Z,4.89
2019-05-15T03:49:19.888Z,4.87
2019-05-15T03:50:19.543Z,4.93
2019-05-15T03:51:20.091Z,4.90
2019-05-15T03:52:19.603Z,4.82
2019-05-15T03:53:19.775Z,4.80
2019-05-15T03:54:19.950Z,4.87
2019-05-15T03:55:20.117Z,4.90
2019-05-15T03:56:20.273Z,4.90
2019-05-15T03:57:23.129Z,4.90
2019-05-15T03:58:21.748Z,4.80
2019-05-15T03:59:20.783Z,4.90
2019-05-15T04:00:23.541Z,4.93
2019-05-15T04:01:33.961Z,5.04
2019-05-15T04:02:24.013Z,4.90
2019-05-15T04:03:21.449Z,4.82
2019-05-15T04:04:22.510Z,4.82
2019-05-15T04:05:22.504Z,4.92
2019-05-15T04:06:22.335Z,4.90
2019-05-15T04:07:22.062Z,4.80
2019-05-15T04:08:22.223Z,4.84
2019-05-15T04:09:22.401Z,4.92
2019-05-15T04:10:22.586Z,4.86
2019-05-15T04:11:22.740Z,4.87
2019-05-15T04:12:22.904Z,4.87
2019-05-15T04:13:23.070Z,4.94
2019-05-15T04:14:23.238Z,4.90
2019-05-15T04:15:23.406Z,4.90
2019-05-15T04:16:23.573Z,4.90
2019-05-15T04:17:23.729Z,4.87
2019-05-15T04:18:23.906Z,4.86
2019-05-15T04:19:24.070Z,5.05
2019-05-15T04:20:24.236Z,4.93
2019-05-15T04:21:24.413Z,4.94
2019-05-15T04:22:24.571Z,4.94
2019-05-15T04:23:24.760Z,5.02
2019-05-15T04:24:24.932Z,5.02
2019-05-15T04:25:25.107Z,5.07
2019-05-15T04:26:25.267Z,5.05
2019-05-15T04:27:28.732Z,5.11
2019-05-15T04:28:25.613Z,5.21
2019-05-15T04:29:28.742Z,5.28
2019-05-15T04:30:25.955Z,5.28
2019-05-15T04:31:26.185Z,5.41
2019-05-15T04:32:28.887Z,5.44
2019-05-15T04:33:29.281Z,5.47
2019-05-15T04:34:29.058Z,5.53
2019-05-15T04:35:28.976Z,5.54
2019-05-15T04:36:29.740Z,5.56
2019-05-15T04:37:29.932Z,5.62
2019-05-15T04:38:29.268Z,5.56
2019-05-15T04:39:29.660Z,5.64
2019-05-15T04:40:30.629Z,5.54
2019-05-15T04:41:29.931Z,5.68
2019-05-15T04:42:29.856Z,5.72
2019-05-15T04:43:30.333Z,5.68
2019-05-15T04:44:29.115Z,5.71
2019-05-15T04:45:34.645Z,5.76
2019-05-15T04:46:29.972Z,5.65
2019-05-15T04:47:30.765Z,5.90
2019-05-15T04:48:30.781Z,5.90
2019-05-15T04:49:29.829Z,6.07
2019-05-15T04:50:29.069Z,6.07
2019-05-15T04:51:30.683Z,6.17
2019-05-15T04:52:31.284Z,6.04
2019-05-15T04:53:33.181Z,5.98
2019-05-15T04:54:29.798Z,5.93
2019-05-15T04:55:29.960Z,6.01
2019-05-15T04:56:30.812Z,6.09
2019-05-15T04:57:33.805Z,6.14
2019-05-15T04:58:30.407Z,6.07
2019-05-15T04:59:30.573Z,6.28
2019-05-15T05:00:32.213Z,6.30
2019-05-15T05:01:31.956Z,6.45
2019-05-15T05:02:32.202Z,6.46
2019-05-15T05:03:34.381Z,6.60
2019-05-15T05:04:31.394Z,6.56
2019-05-15T05:05:31.559Z,6.72
2019-05-15T05:06:31.729Z,6.79
2019-05-15T05:07:31.899Z,6.87
2019-05-15T05:08:32.064Z,6.85
2019-05-15T05:09:33.777Z,6.96
2019-05-15T05:10:33.122Z,7.02
2019-05-15T05:11:32.529Z,7.15
2019-05-15T05:12:32.706Z,7.13
2019-05-15T05:13:32.859Z,7.25
2019-05-15T05:14:33.028Z,7.33
2019-05-15T05:15:33.835Z,7.29
2019-05-15T05:16:34.744Z,7.45
2019-05-15T05:17:33.808Z,7.53
2019-05-15T05:18:33.626Z,7.58
2019-05-15T05:19:33.781Z,7.67
2019-05-15T05:20:33.949Z,7.94
2019-05-15T05:21:34.122Z,7.94
2019-05-15T05:22:34.284Z,8.00
2019-05-15T05:23:34.462Z,7.91
2019-05-15T05:24:34.634Z,8.15
2019-05-15T05:25:34.907Z,8.24
2019-05-15T05:26:35.082Z,8.34
2019-05-15T05:27:35.243Z,8.49
2019-05-15T05:28:35.281Z,8.48
2019-05-15T05:29:35.608Z,8.38
2019-05-15T05:30:38.427Z,8.49
2019-05-15T05:31:39.165Z,8.60
2019-05-15T05:32:38.767Z,8.70
2019-05-15T05:33:38.152Z,8.73
2019-05-15T05:34:38.937Z,8.67
2019-05-15T05:35:38.590Z,8.67
2019-05-15T05:36:38.625Z,8.63
2019-05-15T05:37:38.999Z,8.78
2019-05-15T05:38:38.759Z,9.00
2019-05-15T05:39:39.306Z,9.06
2019-05-15T05:40:38.482Z,9.08
2019-05-15T05:41:39.203Z,9.23
2019-05-15T05:42:38.867Z,9.32
2019-05-15T05:43:38.465Z,9.43
2019-05-15T05:44:40.575Z,9.50
2019-05-15T05:45:38.402Z,9.58
2019-05-15T05:46:39.785Z,9.68
2019-05-15T05:47:38.818Z,9.83
2019-05-15T05:48:38.726Z,9.94
2019-05-15T05:49:38.911Z,10.05
2019-05-15T05:50:39.079Z,10.19
2019-05-15T05:51:39.249Z,10.30
2019-05-15T05:52:39.418Z,10.34
2019-05-15T05:53:39.586Z,10.40
2019-05-15T05:54:39.765Z,10.42
2019-05-15T05:55:39.929Z,10.48
2019-05-15T05:56:40.116Z,10.64
2019-05-15T05:57:40.281Z,10.71
2019-05-15T05:58:40.456Z,10.74
2019-05-15T05:59:40.819Z,10.76
2019-05-15T06:00:40.811Z,10.72
2019-05-15T06:01:44.077Z,10.92
2019-05-15T06:02:48.082Z,11.07
2019-05-15T06:03:41.317Z,11.00
2019-05-15T06:04:41.490Z,11.00
2019-05-15T06:05:41.657Z,11.05
2019-05-15T06:06:41.832Z,11.25
2019-05-15T06:07:42.004Z,11.22
2019-05-15T06:08:42.216Z,11.26
2019-05-15T06:09:42.365Z,11.32
2019-05-15T06:10:42.538Z,11.44
2019-05-15T06:11:42.717Z,11.40
2019-05-15T06:12:42.894Z,11.50
2019-05-15T06:13:43.052Z,11.51
2019-05-15T06:14:43.217Z,11.44
2019-05-15T06:15:43.390Z,11.59
2019-05-15T06:16:43.564Z,11.60
2019-05-15T06:17:43.762Z,11.60
2019-05-15T06:18:43.937Z,11.65
2019-05-15T06:19:44.100Z,11.65
2019-05-15T06:20:44.275Z,11.75
2019-05-15T06:21:54.595Z,11.95
2019-05-15T06:22:47.757Z,12.06
2019-05-15T06:23:48.545Z,11.81
2019-05-15T06:24:45.543Z,12.00
2019-05-15T06:25:48.403Z,12.18
2019-05-15T06:26:48.247Z,12.17
2019-05-15T06:27:48.173Z,12.21
2019-05-15T06:28:48.744Z,12.17
2019-05-15T06:29:48.392Z,12.18
2019-05-15T06:30:48.620Z,12.36
2019-05-15T06:31:49.235Z,12.43
2019-05-15T06:33:03.866Z,12.64
2019-05-15T06:33:48.881Z,12.73
2019-05-15T06:34:48.490Z,12.87
2019-05-15T06:35:48.890Z,13.09
2019-05-15T06:36:48.572Z,13.03
2019-05-15T06:37:48.472Z,13.16
2019-05-15T06:38:48.356Z,13.31
2019-05-15T06:39:48.133Z,13.50
2019-05-15T06:40:48.630Z,13.59
2019-05-15T06:41:48.331Z,13.53
2019-05-15T06:42:48.408Z,13.68
2019-05-15T06:43:48.506Z,13.86
2019-05-15T06:44:48.450Z,14.05
2019-05-15T06:45:48.842Z,14.11
2019-05-15T06:46:48.484Z,14.22
2019-05-15T06:47:49.080Z,14.43
2019-05-15T06:48:48.871Z,14.37
2019-05-15T06:49:49.066Z,14.54
2019-05-15T06:50:49.525Z,14.60
2019-05-15T06:51:49.560Z,14.77
2019-05-15T06:52:49.729Z,14.88
2019-05-15T06:53:49.691Z,15.00
2019-05-15T06:54:49.941Z,15.06
2019-05-15T06:55:49.920Z,15.09
2019-05-15T06:56:50.117Z,15.14
2019-05-15T06:57:51.245Z,15.17
2019-05-15T06:58:50.405Z,15.22
2019-05-15T06:59:50.589Z,15.29
2019-05-15T07:00:50.735Z,15.58
2019-05-15T07:01:50.914Z,15.51
2019-05-15T07:02:51.065Z,15.67
2019-05-15T07:03:51.426Z,15.79
2019-05-15T07:04:51.458Z,16.01
2019-05-15T07:05:51.783Z,16.00
2019-05-15T07:06:51.981Z,15.95
2019-05-15T07:07:51.873Z,16.01
2019-05-15T07:08:52.049Z,16.13
2019-05-15T07:09:52.223Z,16.00
2019-05-15T07:10:52.412Z,16.23
2019-05-15T07:11:52.585Z,16.29
2019-05-15T07:12:53.249Z,16.53
2019-05-15T07:13:52.919Z,16.60
2019-05-15T07:14:53.167Z,16.79
2019-05-15T07:15:53.289Z,16.89
2019-05-15T07:16:53.660Z,17.22
2019-05-15T07:17:53.589Z,17.45
2019-05-15T07:18:53.754Z,17.71
2019-05-15T07:19:53.923Z,17.98
2019-05-15T07:20:54.094Z,18.26
2019-05-15T07:21:54.280Z,18.53
2019-05-15T07:22:54.429Z,18.49
2019-05-15T07:23:54.608Z,18.99
2019-05-15T07:24:54.781Z,19.52
2019-05-15T07:25:54.957Z,19.92
2019-05-15T07:26:55.135Z,20.22
2019-05-15T07:27:57.883Z,20.63
2019-05-15T07:28:55.495Z,20.74
2019-05-15T07:29:55.675Z,21.14
2019-05-15T07:30:58.210Z,21.61
2019-05-15T07:31:58.449Z,21.62
2019-05-15T07:32:58.313Z,21.98
2019-05-15T07:33:56.496Z,22.07
2019-05-15T07:34:57.836Z,22.29
2019-05-15T07:35:59.047Z,22.73
2019-05-15T07:36:59.196Z,23.00
2019-05-15T07:37:58.637Z,22.65
2019-05-15T07:38:57.995Z,22.73
2019-05-15T07:39:59.071Z,23.17
2019-05-15T07:41:03.779Z,23.00
2019-05-15T07:41:58.167Z,23.27
2019-05-15T07:42:58.645Z,23.23
2019-05-15T07:43:58.715Z,23.47
2019-05-15T07:44:58.978Z,23.69
2019-05-15T07:45:59.159Z,23.44
2019-05-15T07:46:58.770Z,22.99
2019-05-15T07:47:58.965Z,23.28
2019-05-15T07:48:59.130Z,22.91
2019-05-15T07:49:59.382Z,23.21
2019-05-15T07:50:59.631Z,23.10
2019-05-15T07:51:59.652Z,23.27
2019-05-15T07:52:59.824Z,23.32
2019-05-15T07:54:02.599Z,23.13
2019-05-15T07:55:00.173Z,23.31
2019-05-15T07:56:01.552Z,23.21
2019-05-15T07:57:00.548Z,23.34
2019-05-15T07:58:00.721Z,23.09
2019-05-15T07:59:00.889Z,23.21
2019-05-15T08:00:01.074Z,23.28
2019-05-15T08:01:01.244Z,23.23
2019-05-15T08:02:01.545Z,23.10
2019-05-15T08:03:01.715Z,23.05
2019-05-15T08:04:20.706Z,23.13
2019-05-15T08:05:01.946Z,23.28
2019-05-15T08:06:03.255Z,23.34
2019-05-15T08:07:02.434Z,23.25
2019-05-15T08:08:02.990Z,23.17
2019-05-15T08:09:02.655Z,23.55
2019-05-15T08:10:02.844Z,23.47
2019-05-15T08:11:16.125Z,23.37
2019-05-15T08:12:03.410Z,23.20
2019-05-15T08:13:03.431Z,23.32
2019-05-15T08:14:03.820Z,23.69
2019-05-15T08:15:03.677Z,23.88
2019-05-15T08:16:03.854Z,23.63
2019-05-15T08:17:04.036Z,23.86
2019-05-15T08:18:09.063Z,23.93
2019-05-15T08:19:04.397Z,23.71
2019-05-15T08:20:04.617Z,24.05
2019-05-15T08:21:04.849Z,24.32
2019-05-15T08:22:05.387Z,24.85
2019-05-15T08:23:05.211Z,25.06
2019-05-15T08:24:05.287Z,25.17
2019-05-15T08:25:07.599Z,25.58
2019-05-15T08:26:05.787Z,25.47
2019-05-15T08:27:08.208Z,25.07
2019-05-15T08:28:08.274Z,25.65
2019-05-15T08:29:08.389Z,25.90
2019-05-15T08:30:08.759Z,25.51
2019-05-15T08:31:09.923Z,25.55
2019-05-15T08:32:08.354Z,25.66
2019-05-15T08:33:08.347Z,25.72
2019-05-15T08:34:15.307Z,26.41
2019-05-15T08:35:08.051Z,26.68
2019-05-15T08:36:08.393Z,25.93
2019-05-15T08:37:07.993Z,26.25
2019-05-15T08:38:08.790Z,25.53
2019-05-15T08:39:08.569Z,26.13
2019-05-15T08:40:08.785Z,26.29
2019-05-15T08:41:11.503Z,26.70
2019-05-15T08:42:08.794Z,26.68
2019-05-15T08:43:11.556Z,27.08
2019-05-15T08:44:09.204Z,27.51
2019-05-15T08:45:09.425Z,28.07
2019-05-15T08:46:09.525Z,28.15
2019-05-15T08:47:09.738Z,28.23
2019-05-15T08:48:09.933Z,28.07
2019-05-15T08:49:10.104Z,28.23
2019-05-15T08:50:10.295Z,27.54
2019-05-15T08:51:10.471Z,27.93
2019-05-15T08:52:10.651Z,28.02
2019-05-15T08:53:12.547Z,28.01
2019-05-15T08:54:10.975Z,28.27
2019-05-15T08:55:11.160Z,27.55
2019-05-15T08:56:14.388Z,27.89
2019-05-15T08:57:11.638Z,26.71
2019-05-15T08:58:13.977Z,27.21
2019-05-15T08:59:11.865Z,27.36
2019-05-15T09:00:12.122Z,27.52
2019-05-15T09:01:14.029Z,27.25
2019-05-15T09:02:12.455Z,27.51
2019-05-15T09:03:12.641Z,27.87
2019-05-15T09:04:26.488Z,27.58
2019-05-15T09:05:13.010Z,27.96
2019-05-15T09:06:13.194Z,27.92
2019-05-15T09:07:13.382Z,26.96
2019-05-15T09:08:13.573Z,27.35
2019-05-15T09:09:13.766Z,27.70
2019-05-15T09:10:13.945Z,27.95
2019-05-15T09:11:14.126Z,27.83
2019-05-15T09:12:14.313Z,27.74
2019-05-15T09:13:14.497Z,28.05
2019-05-15T09:14:14.737Z,28.20
2019-05-15T09:15:14.867Z,27.96
2019-05-15T09:16:15.051Z,28.01
2019-05-15T09:17:17.999Z,28.45
2019-05-15T09:18:16.433Z,28.38
2019-05-15T09:19:15.626Z,28.01
2019-05-15T09:20:15.803Z,28.59
2019-05-15T09:21:15.986Z,27.98
2019-05-15T09:22:18.551Z,28.47
2019-05-15T09:23:19.449Z,28.66
2019-05-15T09:24:16.567Z,28.63
2019-05-15T09:25:19.346Z,28.12
2019-05-15T09:26:19.232Z,27.29
2019-05-15T09:27:18.493Z,27.20
2019-05-15T09:28:18.902Z,27.63
2019-05-15T09:29:18.580Z,27.87
2019-05-15T09:30:18.234Z,27.92
2019-05-15T09:31:19.234Z,28.49
2019-05-15T09:32:19.153Z,27.87
2019-05-15T09:33:20.001Z,27.63
2019-05-15T09:34:18.667Z,27.55
2019-05-15T09:35:18.714Z,28.00
2019-05-15T09:36:20.836Z,28.26
2019-05-15T09:37:18.798Z,28.20
2019-05-15T09:38:19.141Z,28.64
2019-05-15T09:39:19.189Z,28.70
2019-05-15T09:40:19.402Z,29.02
2019-05-15T09:41:19.548Z,29.17
2019-05-15T09:42:19.764Z,27.37
2019-05-15T09:43:19.924Z,27.60
2019-05-15T09:44:21.433Z,26.25
2019-05-15T09:45:20.377Z,26.88
2019-05-15T09:46:20.464Z,27.58
2019-05-15T09:47:20.924Z,27.48
2019-05-15T09:48:20.873Z,28.00
2019-05-15T09:49:21.092Z,28.08
2019-05-15T09:50:21.319Z,28.42
2019-05-15T09:51:21.854Z,28.97
2019-05-15T09:52:23.226Z,29.19
2019-05-15T09:53:21.991Z,28.66
2019-05-15T09:54:25.469Z,29.20
2019-05-15T09:55:22.188Z,29.44
2019-05-15T09:56:22.523Z,29.14
2019-05-15T09:57:22.516Z,28.98
2019-05-15T09:58:22.708Z,28.20
2019-05-15T09:59:22.908Z,28.79
2019-05-15T10:00:23.166Z,28.54
2019-05-15T10:01:23.208Z,29.14
2019-05-15T10:02:23.415Z,29.53
2019-05-15T10:03:23.621Z,29.24
2019-05-15T10:04:23.800Z,29.45
2019-05-15T10:05:23.977Z,29.41
2019-05-15T10:06:24.169Z,29.38
2019-05-15T10:07:24.346Z,29.19
2019-05-15T10:08:24.558Z,29.39
2019-05-15T10:09:24.746Z,29.35
2019-05-15T10:10:24.919Z,29.10
2019-05-15T10:11:25.114Z,28.79
2019-05-15T10:12:25.288Z,28.66
2019-05-15T10:13:25.482Z,28.93
2019-05-15T10:14:25.666Z,29.22
2019-05-15T10:15:25.854Z,29.47
2019-05-15T10:16:26.023Z,29.75
2019-05-15T10:17:28.940Z,29.94
2019-05-15T10:18:28.256Z,29.78
2019-05-15T10:19:28.928Z,29.49
2019-05-15T10:20:28.985Z,29.86
2019-05-15T10:21:32.140Z,29.51
2019-05-15T10:22:28.273Z,29.38
2019-05-15T10:23:29.207Z,28.27
2019-05-15T10:24:28.086Z,26.81
2019-05-15T10:25:28.186Z,26.83
2019-05-15T10:26:28.554Z,26.70
2019-05-15T10:27:28.734Z,26.53
2019-05-15T10:28:29.266Z,27.17
2019-05-15T10:29:28.498Z,27.08
2019-05-15T10:30:28.693Z,27.00
2019-05-15T10:31:28.863Z,27.30
2019-05-15T10:32:29.290Z,27.48
2019-05-15T10:33:29.710Z,28.19
2019-05-15T10:34:29.352Z,28.94
2019-05-15T10:35:31.824Z,29.34
2019-05-15T10:36:29.754Z,29.47
2019-05-15T10:37:29.936Z,29.60
2019-05-15T10:38:30.131Z,29.76
2019-05-15T10:39:33.134Z,29.38
2019-05-15T10:40:30.454Z,27.83
2019-05-15T10:41:31.578Z,28.29
2019-05-15T10:42:31.146Z,28.38
2019-05-15T10:43:30.972Z,28.79
2019-05-15T10:44:31.146Z,28.85
2019-05-15T10:45:31.331Z,29.51
2019-05-15T10:46:31.517Z,29.54
2019-05-15T10:47:31.698Z,28.79
2019-05-15T10:48:33.033Z,29.04
2019-05-15T10:49:32.106Z,29.45
2019-05-15T10:50:32.282Z,29.78
2019-05-15T10:51:32.511Z,30.05
2019-05-15T10:52:32.703Z,29.53
2019-05-15T10:53:32.870Z,29.44
2019-05-15T10:54:33.046Z,29.49
2019-05-15T10:55:39.073Z,29.59
2019-05-15T10:56:33.484Z,29.93
2019-05-15T10:57:33.677Z,30.00
2019-05-15T10:58:33.859Z,29.72
2019-05-15T10:59:34.029Z,29.44
2019-05-15T11:00:34.226Z,29.86
2019-05-15T11:01:34.434Z,29.38
2019-05-15T11:02:34.626Z,28.89
2019-05-15T11:03:35.228Z,28.94
2019-05-15T11:04:35.022Z,28.81
2019-05-15T11:05:44.442Z,28.29
2019-05-15T11:06:35.359Z,27.77
2019-05-15T11:07:35.553Z,27.49
2019-05-15T11:08:35.722Z,27.65
2019-05-15T11:09:37.507Z,28.75
2019-05-15T11:10:41.459Z,28.85
2019-05-15T11:11:36.258Z,28.63
2019-05-15T11:12:36.707Z,28.00
2019-05-15T11:13:38.176Z,27.70
2019-05-15T11:14:37.957Z,27.39
2019-05-15T11:15:40.512Z,27.12
2019-05-15T11:16:39.133Z,27.07
2019-05-15T11:17:38.522Z,27.18
2019-05-15T11:18:39.423Z,27.27
2019-05-15T11:19:40.503Z,26.89
2019-05-15T11:20:41.112Z,27.32
2019-05-15T11:21:38.067Z,27.77
2019-05-15T11:22:42.275Z,27.48
2019-05-15T11:23:39.444Z,27.83
2019-05-15T11:24:38.683Z,27.35
2019-05-15T11:25:38.628Z,26.88
2019-05-15T11:26:39.191Z,26.19
2019-05-15T11:27:39.353Z,25.77
2019-05-15T11:28:39.486Z,25.63
2019-05-15T11:29:39.338Z,25.50
2019-05-15T11:30:39.589Z,24.70
2019-05-15T11:31:40.857Z,24.29
2019-05-15T11:32:41.122Z,24.17
2019-05-15T11:33:40.741Z,24.16
2019-05-15T11:34:41.179Z,24.10
2019-05-15T11:35:56.749Z,24.39
2019-05-15T11:36:41.706Z,24.03
2019-05-15T11:37:45.412Z,23.55
2019-05-15T11:38:42.620Z,23.61
2019-05-15T11:39:45.654Z,23.46
2019-05-15T11:40:43.054Z,23.03
2019-05-15T11:41:42.780Z,22.91
2019-05-15T11:42:42.596Z,22.76
2019-05-15T11:43:41.985Z,22.70
2019-05-15T11:44:42.164Z,22.65
2019-05-15T11:45:42.353Z,22.75
2019-05-15T11:46:42.639Z,22.91
2019-05-15T11:47:42.807Z,22.98
2019-05-15T11:48:42.832Z,22.73
2019-05-15T11:49:43.024Z,22.36
2019-05-15T11:50:43.226Z,22.26
2019-05-15T11:51:43.390Z,22.50
2019-05-15T11:52:43.564Z,22.57
2019-05-15T11:53:43.818Z,22.53
2019-05-15T11:54:43.868Z,22.36
2019-05-15T11:55:44.042Z,22.35
2019-05-15T11:56:44.227Z,22.22
2019-05-15T11:57:47.666Z,22.13
2019-05-15T11:58:44.592Z,22.10
2019-05-15T11:59:46.298Z,22.22
2019-05-15T12:00:44.926Z,22.36
2019-05-15T12:01:45.129Z,22.45
2019-05-15T12:02:45.293Z,22.39
2019-05-15T12:03:45.474Z,22.39
2019-05-15T12:04:45.653Z,22.48
2019-05-15T12:05:45.862Z,22.23
2019-05-15T12:06:58.323Z,22.02
2019-05-15T12:07:47.916Z,22.04
2019-05-15T12:08:46.330Z,22.15
2019-05-15T12:09:46.518Z,22.25
2019-05-15T12:10:46.689Z,22.20
2019-05-15T12:11:47.265Z,21.95
2019-05-15T12:12:49.749Z,22.10
2019-05-15T12:13:47.179Z,22.08
2019-05-15T12:14:49.522Z,22.22
2019-05-15T12:15:48.517Z,22.11
2019-05-15T12:17:02.447Z,22.14
2019-05-15T12:17:48.464Z,22.26
2019-05-15T12:18:48.404Z,22.07
2019-05-15T12:19:54.897Z,21.99
2019-05-15T12:20:48.855Z,21.98
2019-05-15T12:21:49.096Z,22.18
2019-05-15T12:22:49.839Z,21.96
2019-05-15T12:23:49.022Z,22.00
2019-05-15T12:24:50.117Z,21.89
2019-05-15T12:25:49.346Z,21.70
2019-05-15T12:26:49.583Z,21.64
2019-05-15T12:27:49.768Z,21.73
2019-05-15T12:28:49.841Z,21.73
2019-05-15T12:29:50.018Z,21.88
2019-05-15T12:30:50.295Z,21.93
2019-05-15T12:31:50.415Z,22.04
2019-05-15T12:32:50.638Z,21.83
2019-05-15T12:33:50.762Z,21.66
2019-05-15T12:34:50.915Z,21.25
2019-05-15T12:35:51.250Z,21.29
2019-05-15T12:36:57.366Z,21.30
2019-05-15T12:37:51.412Z,21.20
2019-05-15T12:38:51.718Z,21.12
2019-05-15T12:59:54.741Z,20.88
2019-05-15T13:00:54.921Z,20.81
2019-05-15T13:01:55.093Z,20.92
2019-05-15T13:02:55.323Z,20.97
2019-05-15T13:03:57.836Z,20.97
2019-05-15T13:04:55.615Z,20.96
2019-05-15T13:05:55.812Z,20.78
2019-05-15T13:07:12.272Z,20.96
2019-05-15T13:07:56.186Z,20.70
2019-05-15T13:08:59.240Z,20.51
2019-05-15T13:09:57.965Z,20.43
2019-05-15T13:10:56.697Z,20.34
2019-05-15T13:11:56.868Z,20.47
2019-05-15T13:13:02.505Z,20.34
2019-05-15T13:13:59.073Z,20.34
2019-05-15T13:14:59.037Z,20.36
2019-05-15T13:15:58.993Z,20.19
2019-05-15T13:16:59.006Z,20.04
2019-05-15T13:17:59.656Z,19.85
2019-05-15T13:18:58.791Z,19.89
2019-05-15T13:19:58.697Z,19.85
2019-05-15T13:20:59.504Z,19.86
2019-05-15T13:21:58.583Z,19.89
2019-05-15T13:22:59.406Z,20.13
2019-05-15T13:23:58.927Z,20.07
2019-05-15T13:24:59.126Z,20.10
2019-05-15T13:25:59.582Z,20.24